Time;durP1;ratioP1;P1;durP2;ratioP2;P2;SDS_P1;SDS_P2;PMS_P1;PMS_P2;Temp;Humidity;BMP_temperature;BMP_pressure;BME280_temperature;BME280_humidity;BME280_pressure;Samples;Min_cycle;Max_cycle;Signal;HPM_P1;HPM_P2
2023/04/30 00:00:08;;;;;;;14.93;9.77;;;;;;;8.06;84.65;102259.34;5043024;28;20025;-56
2023/04/30 00:02:33;;;;;;;14.55;9.98;;;;;;;8.05;85.41;102260.28;5044133;28;20033;-57
2023/04/30 00:04:59;;;;;;;12.23;9.95;;;;;;;8.03;86.28;102255.06;5035872;28;20395;-55
2023/04/30 00:07:24;;;;;;;12.18;9.35;;;;;;;8.03;85.87;102254.22;5033373;28;20055;-54
2023/04/30 00:09:50;;;;;;;15.38;9.77;;;;;;;8.01;86.44;102256.91;5034951;28;20041;-55
2023/04/30 00:12:15;;;;;;;13.40;9.18;;;;;;;7.97;86.60;102256.16;5034155;28;20491;-54
2023/04/30 00:14:40;;;;;;;12.85;9.73;;;;;;;7.96;86.75;102257.09;5039978;28;20021;-55
2023/04/30 00:17:06;;;;;;;11.68;10.05;;;;;;;7.97;87.38;102255.31;5048271;28;20104;-54
2023/04/30 00:19:31;;;;;;;13.73;10.00;;;;;;;7.95;87.68;102260.66;5039918;28;20025;-55
2023/04/30 00:21:56;;;;;;;13.77;9.43;;;;;;;7.93;87.84;102253.75;5044496;28;20037;-55
2023/04/30 00:24:22;;;;;;;14.40;10.18;;;;;;;7.91;88.62;102259.09;5033409;28;20025;-56
2023/04/30 00:26:47;;;;;;;16.05;10.32;;;;;;;7.89;88.89;102260.06;5032801;28;20035;-55
2023/04/30 00:29:12;;;;;;;13.88;9.90;;;;;;;7.86;89.05;102260.19;5034381;28;20396;-57
2023/04/30 00:31:38;;;;;;;16.80;10.75;;;;;;;7.85;89.73;102262.00;5033984;28;20554;-52
2023/04/30 00:34:03;;;;;;;14.93;10.07;;;;;;;7.85;89.11;102261.13;5027602;28;20029;-56
2023/04/30 00:36:29;;;;;;;14.20;10.15;;;;;;;7.84;89.99;102264.69;5046519;28;20040;-54
2023/04/30 00:38:54;;;;;;;14.68;10.00;;;;;;;7.80;90.10;102263.97;5044732;28;20028;-56
2023/04/30 00:41:20;;;;;;;16.25;9.98;;;;;;;7.81;89.86;102252.47;5040363;28;20049;-54
2023/04/30 00:43:46;;;;;;;14.45;10.50;;;;;;;7.80;90.73;102258.69;5029321;28;20033;-53
2023/04/30 00:46:11;;;;;;;16.15;11.73;;;;;;;7.79;90.50;102254.31;5039717;28;20051;-54
2023/04/30 00:48:36;;;;;;;17.58;12.27;;;;;;;7.78;90.47;102253.44;5039452;28;20027;-53
2023/04/30 00:51:03;;;;;;;17.50;12.18;;;;;;;7.75;90.03;102258.88;5038880;28;20112;-54
2023/04/30 00:53:29;;;;;;;17.90;12.98;;;;;;;7.75;91.18;102268.59;5045573;28;20017;-54
2023/04/30 00:55:55;;;;;;;20.88;14.27;;;;;;;7.71;91.17;102265.22;5039401;28;20501;-54
2023/04/30 00:58:21;;;;;;;16.63;13.27;;;;;;;7.72;91.59;102258.13;5038483;28;20024;-55
2023/04/30 01:00:48;;;;;;;18.38;13.65;;;;;;;7.70;91.35;102255.56;5043115;28;20028;-54
2023/04/30 01:03:13;;;;;;;20.05;13.57;;;;;;;7.67;92.19;102263.63;5032879;28;20036;-56
2023/04/30 01:05:39;;;;;;;22.00;13.52;;;;;;;7.66;92.46;102259.28;5034437;28;20025;-53
2023/04/30 01:08:05;;;;;;;18.73;12.85;;;;;;;7.66;92.46;102256.63;5036134;28;20033;-57
2023/04/30 01:10:41;;;;;;;18.95;13.05;;;;;;;7.63;93.13;102255.88;5040064;28;20032;-54
2023/04/30 01:13:16;;;;;;;16.10;12.48;;;;;;;7.63;93.39;102255.88;5038831;28;20021;-55
2023/04/30 01:15:46;;;;;;;19.83;12.68;;;;;;;7.60;92.70;102248.94;5040611;28;20108;-55
2023/04/30 01:18:21;;;;;;;15.50;11.77;;;;;;;7.58;93.70;102251.63;5036583;28;20519;-53
2023/04/30 01:20:53;;;;;;;17.13;11.85;;;;;;;7.57;93.91;102257.00;5039135;28;20050;-54
2023/04/30 01:23:31;;;;;;;16.30;11.85;;;;;;;7.57;94.01;102257.00;5049374;28;20017;-53
2023/04/30 01:26:26;;;;;;;15.50;11.52;;;;;;;7.54;93.58;102255.34;5032227;28;20030;-57
2023/04/30 01:28:53;;;;;;;16.40;11.40;;;;;;;7.51;94.08;102252.84;5032183;28;20341;-56
2023/04/30 01:31:18;;;;;;;15.55;11.02;;;;;;;7.52;93.54;102257.16;5031939;28;20037;-56
2023/04/30 01:33:44;;;;;;;17.73;11.13;;;;;;;7.49;93.68;102257.28;5036025;28;20079;-55
2023/04/30 01:36:24;;;;;;;17.23;12.35;;;;;;;7.49;93.88;102253.81;5037423;28;20033;-56
2023/04/30 01:38:55;;;;;;;13.65;11.05;;;;;;;7.44;94.00;102259.28;5034290;28;20060;-56
2023/04/30 01:41:37;;;;;;;17.55;11.52;;;;;;;7.43;93.95;102256.69;5033192;28;20128;-55
2023/04/30 01:44:22;;;;;;;15.35;11.45;;;;;;;7.43;94.71;102256.69;5023810;28;20112;-53
2023/04/30 01:46:57;;;;;;;16.23;11.98;;;;;;;7.40;94.91;102258.53;5036025;28;20029;-53
2023/04/30 01:49:56;;;;;;;14.73;11.48;;;;;;;7.41;93.74;102257.63;5034723;28;20040;-53
2023/04/30 01:52:30;;;;;;;;;;;;;;;7.45;91.33;102255.72;5037139;28;20543;-53
2023/04/30 01:55:01;;;;;;;12.93;10.98;;;;;;;7.34;94.41;102258.78;5028314;28;19943;-54
2023/04/30 01:57:32;;;;;;;15.27;12.13;;;;;;;7.30;95.44;102259.84;5034734;28;20049;-55
2023/04/30 01:59:58;;;;;;;14.48;11.80;;;;;;;7.29;95.26;102258.09;5032672;28;20056;-53
2023/04/30 02:02:23;;;;;;;17.77;11.68;;;;;;;7.28;95.47;102258.16;5032569;28;20471;-53
2023/04/30 02:04:48;;;;;;;16.80;12.07;;;;;;;7.22;96.03;102257.50;5032261;28;20476;-53
2023/04/30 02:07:25;;;;;;;15.63;12.07;;;;;;;7.21;95.68;102263.72;5031993;28;20022;-56
2023/04/30 02:09:50;;;;;;;15.82;11.88;;;;;;;7.18;96.13;102261.19;5022422;28;20087;-54
2023/04/30 02:12:15;;;;;;;18.55;11.90;;;;;;;7.16;96.14;102263.03;5028195;28;20392;-54
2023/04/30 02:14:41;;;;;;;17.13;12.55;;;;;;;7.16;96.51;102268.31;5027138;28;20090;-53
2023/04/30 02:17:06;;;;;;;14.35;11.60;;;;;;;7.16;96.21;102267.44;5030625;28;20479;-57
2023/04/30 02:19:31;;;;;;;15.48;12.23;;;;;;;7.12;95.99;102266.72;5030435;28;20034;-53
2023/04/30 02:21:56;;;;;;;13.10;10.73;;;;;;;7.12;95.74;102274.63;5031193;28;20466;-54
2023/04/30 02:24:22;;;;;;;15.38;11.82;;;;;;;7.09;96.83;102269.47;5030812;28;20037;-53
2023/04/30 02:26:47;;;;;;;17.13;11.93;;;;;;;7.07;96.31;102273.09;5036350;28;20078;-54
2023/04/30 02:29:12;;;;;;;14.82;11.68;;;;;;;7.04;96.02;102271.44;5029499;28;20026;-54
2023/04/30 02:31:37;;;;;;;16.30;12.52;;;;;;;7.03;97.09;102269.72;5023564;28;20029;-55
2023/04/30 02:34:02;;;;;;;15.90;12.25;;;;;;;6.97;96.16;102268.16;5022504;28;20032;-55
2023/04/30 02:36:28;;;;;;;18.38;11.93;;;;;;;6.98;97.22;102271.69;5048603;28;20051;-53
2023/04/30 02:38:53;;;;;;;15.70;11.90;;;;;;;6.97;96.93;102269.94;5044728;28;20040;-53
2023/04/30 02:41:19;;;;;;;15.85;11.63;;;;;;;6.94;97.35;102268.28;5040715;28;20445;-53
2023/04/30 02:43:44;;;;;;;15.65;12.90;;;;;;;6.91;98.06;102264.91;5039238;28;20030;-53
2023/04/30 02:46:09;;;;;;;17.00;12.70;;;;;;;6.89;98.31;102262.31;5039980;28;20030;-54
2023/04/30 02:48:35;;;;;;;14.80;12.27;;;;;;;6.88;97.79;102265.88;5034669;28;20036;-56
2023/04/30 02:51:00;;;;;;;16.75;12.48;;;;;;;6.88;98.36;102263.25;5045189;28;20053;-55
2023/04/30 02:53:25;;;;;;;19.80;13.45;;;;;;;6.82;99.27;102264.31;5051628;28;20029;-56
2023/04/30 02:55:50;;;;;;;19.92;12.32;;;;;;;6.83;98.36;102267.84;5047708;28;20383;-55
2023/04/30 02:58:16;;;;;;;16.13;12.50;;;;;;;6.81;98.71;102265.25;5040345;28;20057;-53
2023/04/30 03:00:41;;;;;;;14.77;12.55;;;;;;;6.80;98.08;102266.16;5045257;28;20033;-54
2023/04/30 03:03:06;;;;;;;18.58;12.95;;;;;;;6.78;97.89;102267.16;5044756;28;20024;-53
2023/04/30 03:05:31;;;;;;;18.83;12.60;;;;;;;6.76;98.29;102261.06;5041894;28;20026;-54
2023/04/30 03:07:57;;;;;;;15.38;12.32;;;;;;;6.76;98.59;102259.28;5035829;28;20105;-53
2023/04/30 03:10:22;;;;;;;15.27;12.55;;;;;;;6.72;98.79;102255.03;5035845;28;20020;-55
2023/04/30 03:12:47;;;;;;;15.77;12.40;;;;;;;6.74;99.23;102247.06;5035826;28;20029;-54
2023/04/30 03:15:13;;;;;;;17.00;12.30;;;;;;;6.71;98.88;102252.44;5034583;28;20180;-53
2023/04/30 03:17:38;;;;;;;16.85;12.75;;;;;;;6.69;99.50;102249.88;5050850;28;20080;-53
2023/04/30 03:20:04;;;;;;;16.77;13.13;;;;;;;6.63;100.00;102253.59;5047852;28;20382;-53
2023/04/30 03:22:29;;;;;;;17.75;12.52;;;;;;;6.63;99.74;102255.41;5035130;28;20453;-56
2023/04/30 03:24:54;;;;;;;17.65;13.27;;;;;;;6.60;99.32;102264.28;5033904;28;20108;-55
2023/04/30 03:27:20;;;;;;;17.85;13.55;;;;;;;6.62;99.54;102257.16;5044972;28;20136;-54
2023/04/30 03:29:45;;;;;;;15.50;12.82;;;;;;;6.59;99.47;102259.91;5045091;28;20029;-54
2023/04/30 03:32:10;;;;;;;17.23;13.32;;;;;;;6.57;98.81;102253.81;5051137;28;20025;-56
2023/04/30 03:34:37;;;;;;;15.13;12.82;;;;;;;6.53;99.07;102254.88;5038722;28;20025;-56
2023/04/30 03:37:02;;;;;;;17.73;13.00;;;;;;;6.52;99.49;102253.13;5047053;28;20039;-55
2023/04/30 03:39:28;;;;;;;15.80;12.73;;;;;;;6.51;99.27;102261.13;5037520;28;20103;-57
2023/04/30 03:41:53;;;;;;;16.80;12.93;;;;;;;6.47;99.76;102258.59;5037188;28;20025;-54
2023/04/30 03:44:18;;;;;;;18.48;14.15;;;;;;;6.46;100.00;102248.97;5037208;28;20436;-57
2023/04/30 03:46:44;;;;;;;17.75;13.90;;;;;;;6.43;100.00;102254.34;5035789;28;20043;-56
2023/04/30 03:49:10;;;;;;;16.60;13.45;;;;;;;6.41;100.00;102263.22;5049573;28;20032;-56
2023/04/30 03:51:38;;;;;;;18.85;13.98;;;;;;;6.38;100.00;102260.69;5044099;28;20078;-54
2023/04/30 03:54:05;;;;;;;17.15;14.15;;;;;;;6.38;100.00;102261.56;5043282;28;20029;-55
2023/04/30 03:56:31;;;;;;;17.95;13.93;;;;;;;6.36;100.00;102266.06;5041316;28;20131;-54
2023/04/30 03:58:56;;;;;;;17.25;13.77;;;;;;;6.34;100.00;102270.50;5034016;28;20517;-57
2023/04/30 04:01:22;;;;;;;19.48;14.32;;;;;;;6.33;100.00;102276.72;5037492;28;20136;-56
2023/04/30 04:03:47;;;;;;;20.50;14.20;;;;;;;6.30;100.00;102272.38;5039930;28;20382;-56
2023/04/30 04:06:12;;;;;;;16.65;14.20;;;;;;;6.30;100.00;102274.19;5032905;28;20037;-57
2023/04/30 04:08:37;;;;;;;20.17;14.80;;;;;;;6.26;100.00;102272.56;5036591;28;20037;-57
2023/04/30 04:11:03;;;;;;;18.27;14.90;;;;;;;6.24;100.00;102277.03;5037238;28;20022;-55
2023/04/30 04:13:28;;;;;;;18.77;14.68;;;;;;;6.23;100.00;102277.97;5034706;28;20037;-57
2023/04/30 04:15:53;;;;;;;20.73;14.75;;;;;;;6.20;100.00;102278.06;5035032;28;20029;-57
2023/04/30 04:18:18;;;;;;;19.40;14.88;;;;;;;6.17;100.00;102272.88;5035298;28;20104;-55
2023/04/30 04:20:44;;;;;;;18.50;14.43;;;;;;;6.17;100.00;102284.28;5042154;28;20095;-54
2023/04/30 04:23:10;;;;;;;16.02;14.32;;;;;;;6.16;100.00;102277.31;5043891;28;20116;-57
2023/04/30 04:25:35;;;;;;;20.88;14.00;;;;;;;6.13;100.00;102285.34;5044990;28;20055;-56
2023/04/30 04:28:00;;;;;;;20.17;14.88;;;;;;;6.14;100.00;102288.81;5037427;28;20125;-56
2023/04/30 04:30:26;;;;;;;18.70;15.45;;;;;;;6.14;100.00;102283.53;5039422;28;20467;-56
2023/04/30 04:32:52;;;;;;;21.73;15.25;;;;;;;6.12;100.00;102286.22;5035418;28;20049;-56
2023/04/30 04:35:18;;;;;;;19.45;15.45;;;;;;;6.11;100.00;102293.31;5034459;28;20104;-56
2023/04/30 04:37:43;;;;;;;18.52;14.63;;;;;;;6.11;100.00;102284.50;5034002;28;20505;-56
2023/04/30 04:40:11;;;;;;;19.75;15.00;;;;;;;6.10;100.00;102283.66;5037213;28;20537;-57
2023/04/30 04:42:37;;;;;;;16.83;14.23;;;;;;;6.13;100.00;102293.25;5040780;28;20032;-55
2023/04/30 04:45:04;;;;;;;18.95;15.35;;;;;;;6.14;100.00;102291.47;5032758;28;20040;-54
2023/04/30 04:47:30;;;;;;;17.27;14.25;;;;;;;6.15;100.00;102293.19;5043760;28;20051;-54
2023/04/30 04:49:55;;;;;;;20.33;14.43;;;;;;;6.14;100.00;102294.09;5035923;28;20033;-55
2023/04/30 04:52:20;;;;;;;17.63;14.43;;;;;;;6.13;100.00;102293.25;5046978;28;20035;-57
2023/04/30 04:54:45;;;;;;;20.73;15.82;;;;;;;6.15;100.00;102293.19;5036128;28;20057;-56
2023/04/30 04:57:11;;;;;;;18.80;15.18;;;;;;;6.16;100.00;102300.19;5036959;28;20055;-56
2023/04/30 04:59:36;;;;;;;17.77;14.48;;;;;;;6.18;100.00;102287.78;5039873;28;20022;-57
2023/04/30 05:02:02;;;;;;;20.25;15.35;;;;;;;6.19;100.00;102293.00;5035066;28;20120;-57
2023/04/30 05:04:27;;;;;;;18.88;15.73;;;;;;;6.23;100.00;102297.28;5032409;28;20026;-53
2023/04/30 05:06:53;;;;;;;18.52;15.35;;;;;;;6.27;100.00;102295.38;5034807;28;20092;-57
2023/04/30 05:09:19;;;;;;;18.70;15.88;;;;;;;6.33;100.00;102289.91;5040911;28;20040;-56
2023/04/30 05:11:46;;;;;;;18.77;16.02;;;;;;;6.38;100.00;102293.25;5040478;28;20372;-57
2023/04/30 05:14:12;;;;;;;19.95;15.95;;;;;;;6.49;100.00;102290.19;5033773;28;20025;-55
2023/04/30 05:16:37;;;;;;;18.98;15.73;;;;;;;6.57;100.00;102297.84;5039856;28;20112;-54
2023/04/30 05:19:02;;;;;;;23.00;16.35;;;;;;;6.65;100.00;102290.53;5035991;28;20029;-54
2023/04/30 05:21:28;;;;;;;20.77;16.30;;;;;;;6.71;100.00;102297.34;5032507;28;20041;-55
2023/04/30 05:23:54;;;;;;;19.75;16.23;;;;;;;6.79;100.00;102290.00;5044734;28;20029;-56
2023/04/30 05:26:19;;;;;;;22.48;16.05;;;;;;;6.91;100.00;102289.56;5032864;28;20037;-55
2023/04/30 05:28:45;;;;;;;22.35;16.38;;;;;;;7.00;100.00;102285.69;5042956;28;20126;-53
2023/04/30 05:31:10;;;;;;;18.52;15.88;;;;;;;7.11;100.00;102287.91;5049004;28;20040;-54
2023/04/30 05:33:35;;;;;;;18.80;16.65;;;;;;;7.20;100.00;102287.56;5035334;28;20025;-55
2023/04/30 05:36:01;;;;;;;19.83;15.48;;;;;;;7.28;100.00;102293.41;5043696;28;20382;-57
2023/04/30 05:38:26;;;;;;;18.58;15.02;;;;;;;7.37;100.00;102294.81;5038832;28;20049;-56
2023/04/30 05:40:52;;;;;;;18.27;15.85;;;;;;;7.45;100.00;102291.88;5038256;28;20048;-57
2023/04/30 05:43:17;;;;;;;20.73;15.40;;;;;;;7.50;100.00;102293.41;5034412;28;20053;-54
2023/04/30 05:45:42;;;;;;;17.85;15.57;;;;;;;7.57;100.00;102292.22;5049429;28;20029;-56
2023/04/30 05:48:08;;;;;;;19.55;14.73;;;;;;;7.64;100.00;102287.53;5028710;28;20036;-53
2023/04/30 05:50:33;;;;;;;16.08;13.98;;;;;;;7.62;100.00;102297.31;5037159;28;20099;-53
2023/04/30 05:52:59;;;;;;;16.60;14.30;;;;;;;7.64;100.00;102292.81;5035586;28;20036;-57
2023/04/30 05:55:24;;;;;;;17.90;14.45;;;;;;;7.64;100.00;102294.63;5038544;28;20114;-51
2023/04/30 05:57:50;;;;;;;16.23;13.98;;;;;;;7.66;100.00;102293.66;5029994;28;20136;-51
2023/04/30 06:00:15;;;;;;;17.02;13.68;;;;;;;7.68;100.00;102293.59;5034324;28;20013;-52
2023/04/30 06:02:40;;;;;;;17.20;13.07;;;;;;;7.70;100.00;102289.09;5031891;28;20029;-54
2023/04/30 06:05:09;;;;;;;17.45;12.73;;;;;;;7.74;100.00;102293.31;5032966;28;20079;-52
2023/04/30 06:07:34;;;;;;;16.00;12.00;;;;;;;7.76;100.00;102296.75;5030234;28;20041;-55
2023/04/30 06:09:59;;;;;;;16.55;12.35;;;;;;;7.77;100.00;102288.75;5033327;28;20076;-53
2023/04/30 06:12:25;;;;;;;14.18;12.27;;;;;;;7.80;100.00;102290.41;5028701;28;20052;-57
2023/04/30 06:14:51;;;;;;;13.73;11.68;;;;;;;7.86;100.00;102281.34;4996092;28;20025;-56
2023/04/30 06:17:16;;;;;;;14.35;11.85;;;;;;;7.90;100.00;102278.53;5021522;28;20022;-56
2023/04/30 06:19:41;;;;;;;16.50;13.02;;;;;;;7.94;100.00;102280.13;5033267;28;20065;-54
2023/04/30 06:22:06;;;;;;;16.13;11.93;;;;;;;8.01;100.00;102280.72;5032649;28;20041;-56
2023/04/30 06:24:32;;;;;;;16.35;11.80;;;;;;;8.09;100.00;102280.38;5028286;28;20032;-56
2023/04/30 06:26:57;;;;;;;16.92;12.30;;;;;;;8.17;99.49;102286.19;5017774;28;20069;-55
2023/04/30 06:29:23;;;;;;;16.58;13.00;;;;;;;8.25;99.69;102284.09;5016542;28;20471;-56
2023/04/30 06:31:49;;;;;;;15.50;12.07;;;;;;;8.36;99.51;102285.41;5026580;28;20045;-55
2023/04/30 06:34:15;;;;;;;13.60;12.20;;;;;;;8.44;98.78;102276.25;5030866;28;20025;-54
2023/04/30 06:36:40;;;;;;;18.13;12.65;;;;;;;8.56;98.98;102290.72;5032893;28;20045;-55
2023/04/30 06:39:05;;;;;;;13.88;11.57;;;;;;;8.66;98.06;102283.19;5017705;28;20046;-55
2023/04/30 06:41:31;;;;;;;16.83;12.45;;;;;;;8.75;97.54;102285.44;5036674;28;20029;-57
2023/04/30 06:43:56;;;;;;;15.35;12.07;;;;;;;8.85;97.24;102285.88;5034934;28;20025;-59
2023/04/30 06:46:21;;;;;;;13.73;11.38;;;;;;;8.94;96.44;102288.06;5027070;28;20030;-56
2023/04/30 06:48:46;;;;;;;14.45;11.38;;;;;;;9.02;96.23;102285.94;5028752;28;20045;-54
2023/04/30 06:51:12;;;;;;;21.65;12.80;;;;;;;9.13;95.93;102287.25;5029976;28;20621;-55
2023/04/30 06:53:37;;;;;;;15.30;12.13;;;;;;;9.21;95.29;102285.94;5032099;28;20036;-54
2023/04/30 06:56:03;;;;;;;15.77;12.40;;;;;;;9.35;94.75;102287.91;5028617;28;20053;-54
2023/04/30 06:58:28;;;;;;;16.48;12.23;;;;;;;9.47;94.49;102281.16;5029617;28;20475;-55
2023/04/30 07:00:53;;;;;;;18.35;11.82;;;;;;;9.65;93.66;102289.16;5029130;28;20100;-55
2023/04/30 07:03:18;;;;;;;14.40;11.80;;;;;;;9.81;93.04;102290.97;5027541;28;20086;-56
2023/04/30 07:05:44;;;;;;;14.70;11.77;;;;;;;10.03;92.09;102289.88;5029550;28;20061;-54
2023/04/30 07:08:09;;;;;;;16.13;12.23;;;;;;;10.24;91.30;102292.34;5030560;28;20509;-54
2023/04/30 07:10:35;;;;;;;15.02;12.18;;;;;;;10.47;89.90;102292.03;5027985;28;20512;-53
2023/04/30 07:13:00;;;;;;;15.00;10.98;;;;;;;10.74;89.30;102288.84;5030698;28;20138;-54
2023/04/30 07:15:25;;;;;;;16.27;11.90;;;;;;;10.97;86.95;102287.56;5031372;28;20104;-53
2023/04/30 07:17:50;;;;;;;19.52;12.52;;;;;;;11.43;86.88;102292.97;5028200;28;20030;-54
2023/04/30 07:20:16;;;;;;;16.63;12.30;;;;;;;11.64;84.26;102285.56;5027753;28;20388;-57
2023/04/30 07:22:45;;;;;;;13.68;10.82;;;;;;;11.89;82.00;102284.16;5035746;28;20056;-54
2023/04/30 07:25:11;;;;;;;;;;;;;;;12.08;86.73;102289.25;5035428;28;20061;-55
2023/04/30 07:27:37;;;;;;;13.95;11.85;;;;;;;12.46;80.27;102279.91;5043955;28;19979;-54
2023/04/30 07:30:03;;;;;;;14.25;11.18;;;;;;;12.73;78.67;102288.81;5031839;28;20125;-54
2023/04/30 07:32:28;;;;;;;18.52;12.98;;;;;;;13.07;78.54;102278.69;5027976;28;20120;-54
2023/04/30 07:34:54;;;;;;;14.30;11.60;;;;;;;13.29;76.12;102280.81;5026023;28;20117;-54
2023/04/30 07:37:19;;;;;;;12.18;9.98;;;;;;;13.54;75.26;102281.03;5034716;28;20095;-54
2023/04/30 07:39:44;;;;;;;17.25;10.80;;;;;;;13.79;74.33;102277.59;5030183;28;20030;-54
2023/04/30 07:42:10;;;;;;;11.20;9.85;;;;;;;14.03;73.26;102281.25;5031891;28;20124;-55
2023/04/30 07:44:35;;;;;;;14.98;10.02;;;;;;;14.34;73.39;102276.50;5027275;28;20072;-54
2023/04/30 07:47:00;;;;;;;15.68;11.60;;;;;;;14.59;71.81;102277.47;5022127;28;20052;-56
2023/04/30 07:49:26;;;;;;;11.47;9.23;;;;;;;14.78;68.79;102277.84;5028010;28;20026;-55
2023/04/30 07:51:51;;;;;;;10.55;9.05;;;;;;;15.01;68.32;102274.50;5028952;28;20773;-56
2023/04/30 07:54:16;;;;;;;13.27;9.80;;;;;;;15.22;68.00;102277.41;5029965;28;20029;-56
2023/04/30 07:56:41;;;;;;;17.52;13.77;;;;;;;15.46;67.74;102274.75;5031928;28;20045;-58
2023/04/30 07:59:07;;;;;;;13.45;11.13;;;;;;;15.75;67.59;102269.88;5031275;28;20026;-56
2023/04/30 08:01:32;;;;;;;9.27;8.20;;;;;;;15.71;64.03;102271.94;5034157;28;20124;-53
2023/04/30 08:03:58;;;;;;;13.98;9.77;;;;;;;15.92;64.03;102263.28;5032730;28;20048;-52
2023/04/30 08:06:24;;;;;;;10.23;8.60;;;;;;;16.09;64.13;102270.84;5045860;28;20030;-54
2023/04/30 08:08:49;;;;;;;9.52;8.38;;;;;;;16.31;62.10;102271.88;5035670;28;20030;-52
2023/04/30 08:11:15;;;;;;;10.70;8.32;;;;;;;16.58;61.87;102273.34;5030517;28;20032;-52
2023/04/30 08:13:41;;;;;;;9.77;8.43;;;;;;;16.88;61.60;102270.06;5037913;28;20033;-52
2023/04/30 08:16:06;;;;;;;9.95;7.57;;;;;;;17.04;59.08;102272.38;5032173;28;20387;-51
2023/04/30 08:18:31;;;;;;;10.45;7.97;;;;;;;17.23;59.13;102277.06;5032787;28;20064;-52
2023/04/30 08:20:57;;;;;;;8.02;6.90;;;;;;;17.55;57.96;102273.53;5030891;28;20032;-52
2023/04/30 08:23:22;;;;;;;10.95;7.78;;;;;;;17.61;56.32;102264.97;5032690;28;20497;-52
2023/04/30 08:25:47;;;;;;;10.07;7.63;;;;;;;17.84;56.71;102271.09;5031218;28;20037;-52
2023/04/30 08:28:13;;;;;;;9.90;7.55;;;;;;;18.04;55.58;102268.56;5047892;28;20666;-52
2023/04/30 08:30:38;;;;;;;10.02;7.80;;;;;;;18.26;54.86;102267.56;5039252;28;20490;-51
2023/04/30 08:33:04;;;;;;;8.93;7.55;;;;;;;18.46;55.13;102271.22;5035659;28;20037;-55
2023/04/30 08:35:29;;;;;;;10.90;7.68;;;;;;;18.55;52.91;102270.41;5050134;28;20017;-53
2023/04/30 08:37:54;;;;;;;8.07;7.22;;;;;;;18.75;54.56;102267.78;5046593;28;20394;-53
2023/04/30 08:40:20;;;;;;;8.93;7.55;;;;;;;18.97;55.62;102269.44;5054447;28;20029;-53
2023/04/30 08:42:52;;;;;;;10.13;7.93;;;;;;;18.95;55.21;102264.19;5035677;28;20029;-55
2023/04/30 08:45:18;;;;;;;9.27;7.43;;;;;;;19.21;54.17;102264.50;5055762;28;20475;-57
2023/04/30 08:47:44;;;;;;;9.50;7.38;;;;;;;19.44;53.16;102260.72;5032783;28;20514;-52
2023/04/30 08:50:10;;;;;;;9.82;7.63;;;;;;;19.64;52.95;102264.28;5030381;28;20053;-54
2023/04/30 08:52:36;;;;;;;8.23;7.35;;;;;;;19.71;52.36;102260.84;5023341;28;20099;-54
2023/04/30 08:55:06;;;;;;;9.30;7.88;;;;;;;19.78;51.82;102251.22;5032258;28;20083;-55
2023/04/30 08:57:31;;;;;;;9.82;6.97;;;;;;;19.89;51.42;102254.75;5039316;28;20104;-56
2023/04/30 08:59:57;;;;;;;8.90;7.70;;;;;;;19.87;49.48;102252.22;5060046;28;20421;-56
2023/04/30 09:02:22;;;;;;;7.68;6.88;;;;;;;20.01;48.94;102258.97;5030319;28;20363;-51
2023/04/30 09:04:48;;;;;;;9.40;7.57;;;;;;;20.25;49.66;102250.41;5027232;28;20044;-52
2023/04/30 09:07:14;;;;;;;8.85;6.78;;;;;;;20.57;50.92;102251.84;5012848;28;20033;-54
2023/04/30 09:10:31;;;;;;;11.30;7.00;;;;;;;20.59;49.48;102246.31;5035479;27;20533;-55
2023/04/30 09:13:00;;;;;;;6.75;6.03;;;;;;;20.72;47.50;102252.25;5068505;28;20104;-54
2023/04/30 09:15:25;;;;;;;13.00;7.32;;;;;;;20.82;47.71;102254.88;5067849;28;20395;-53
2023/04/30 09:18:11;;;;;;;8.57;6.70;;;;;;;21.00;49.67;102252.19;5068869;28;20029;-53
2023/04/30 09:20:38;;;;;;;7.60;6.60;;;;;;;21.15;48.09;102248.00;5067506;28;20021;-54
2023/04/30 09:23:08;;;;;;;8.93;7.03;;;;;;;21.16;47.25;102249.69;5068128;28;20036;-57
2023/04/30 09:25:41;;;;;;;10.50;7.20;;;;;;;21.28;48.30;102247.59;5054871;28;20547;-53
2023/04/30 09:28:10;;;;;;;10.05;8.10;;;;;;;21.34;46.82;102247.00;5037941;28;20027;-57
2023/04/30 09:30:36;;;;;;;8.50;6.68;;;;;;;21.50;46.30;102251.75;5062745;28;20017;-55
2023/04/30 09:33:02;;;;;;;10.15;6.20;;;;;;;21.62;43.62;102239.66;5066046;28;20040;-53
2023/04/30 09:35:29;;;;;;;7.65;6.10;;;;;;;21.91;43.12;102238.53;5052947;28;20122;-57
2023/04/30 09:37:54;;;;;;;7.93;6.80;;;;;;;21.79;43.67;102240.63;5061300;28;20021;-54
2023/04/30 09:40:31;;;;;;;7.97;7.15;;;;;;;21.97;46.55;102243.31;5053331;28;20623;-52
2023/04/30 09:42:58;;;;;;;8.65;7.10;;;;;;;21.96;44.79;102241.59;5061543;28;20445;-52
2023/04/30 09:45:24;;;;;;;8.82;7.65;;;;;;;22.17;44.49;102243.09;5055472;28;20388;-53
2023/04/30 09:47:51;;;;;;;7.65;6.85;;;;;;;22.25;44.62;102243.16;5064345;28;20024;-53
2023/04/30 09:50:17;;;;;;;8.95;5.90;;;;;;;22.37;42.30;102240.19;5058702;28;20044;-52
2023/04/30 09:52:52;;;;;;;6.45;5.72;;;;;;;22.46;43.35;102241.91;5061192;28;20033;-53
2023/04/30 09:55:18;;;;;;;6.97;6.00;;;;;;;22.42;41.95;102243.28;5063370;28;20059;-52
2023/04/30 09:57:43;;;;;;;6.30;5.68;;;;;;;22.55;41.17;102238.25;5066194;28;20020;-52
2023/04/30 10:00:10;;;;;;;5.65;5.03;;;;;;;22.44;40.37;102233.13;5065753;28;20086;-52
2023/04/30 10:02:36;;;;;;;7.38;6.63;;;;;;;22.42;41.80;102240.56;5066533;28;20135;-54
2023/04/30 10:05:03;;;;;;;6.78;6.07;;;;;;;22.51;40.78;102236.88;5062890;28;20111;-53
2023/04/30 10:07:38;;;;;;;6.93;5.68;;;;;;;22.56;42.66;102231.81;5065184;28;20047;-51
2023/04/30 10:10:13;;;;;;;6.82;5.70;;;;;;;22.58;43.02;102226.22;5068870;28;20460;-54
2023/04/30 10:12:47;;;;;;;7.82;5.78;;;;;;;22.92;42.68;102229.72;5065533;28;20028;-52
2023/04/30 10:15:21;;;;;;;5.35;4.85;;;;;;;22.64;40.71;102222.88;5069937;28;20040;-52
2023/04/30 10:17:52;;;;;;;5.20;4.45;;;;;;;22.66;40.31;102220.84;5058612;28;20455;-52
2023/04/30 10:20:20;;;;;;;5.18;4.57;;;;;;;22.73;41.15;102220.03;5058254;28;20064;-51
2023/04/30 10:22:47;;;;;;;6.30;5.03;;;;;;;22.90;41.06;102220.09;5052891;28;20029;-54
2023/04/30 10:25:13;;;;;;;5.82;5.28;;;;;;;22.81;39.64;102224.59;5052662;28;20633;-54
2023/04/30 10:27:38;;;;;;;6.35;5.75;;;;;;;22.76;39.87;102221.56;5053073;28;20386;-53
2023/04/30 10:30:08;;;;;;;6.38;5.40;;;;;;;23.02;40.40;102210.63;5045861;28;20037;-51
2023/04/30 10:32:42;;;;;;;6.30;5.70;;;;;;;22.88;40.46;102216.66;5053293;28;20144;-53
2023/04/30 10:35:18;;;;;;;6.10;5.50;;;;;;;22.89;40.45;102207.53;5043811;28;20043;-55
2023/04/30 10:37:54;;;;;;;7.13;5.47;;;;;;;22.96;40.98;102195.00;5045277;28;20150;-53
2023/04/30 10:40:19;;;;;;;6.50;5.80;;;;;;;23.22;41.11;102199.50;5052371;28;20044;-52
2023/04/30 10:42:48;;;;;;;6.55;5.95;;;;;;;23.24;39.41;102197.47;5047915;28;20021;-52
2023/04/30 10:45:19;;;;;;;9.32;6.32;;;;;;;23.14;39.44;102191.38;5041414;28;20029;-51
2023/04/30 10:47:45;;;;;;;6.50;5.75;;;;;;;23.13;40.53;102187.78;5041959;28;20537;-52
2023/04/30 10:50:11;;;;;;;6.63;5.55;;;;;;;23.31;38.73;102186.78;5045691;28;20033;-52
2023/04/30 10:52:37;;;;;;;7.72;5.65;;;;;;;23.43;38.75;102188.13;5043842;28;20033;-52
2023/04/30 10:55:09;;;;;;;7.78;6.00;;;;;;;23.31;39.36;102184.09;5052885;28;20033;-53
2023/04/30 10:57:42;;;;;;;6.30;5.10;;;;;;;23.43;39.96;102178.16;5048317;28;20036;-55
2023/04/30 11:00:08;;;;;;;6.70;6.00;;;;;;;23.35;40.16;102172.72;5045658;28;20091;-52
2023/04/30 11:02:45;;;;;;;7.03;5.43;;;;;;;23.33;39.66;102165.78;5047278;28;20437;-52
2023/04/30 11:05:16;;;;;;;5.65;5.15;;;;;;;23.04;39.02;102165.22;5048955;28;20024;-54
2023/04/30 11:07:49;;;;;;;5.72;5.10;;;;;;;23.03;38.59;102158.13;5050284;28;20477;-52
2023/04/30 11:10:15;;;;;;;6.57;4.05;;;;;;;23.06;36.93;102163.22;5047726;28;20055;-52
2023/04/30 11:12:47;;;;;;;3.92;3.63;;;;;;;23.04;37.35;102157.09;5051296;28;20079;-51
2023/04/30 11:15:15;;;;;;;5.13;4.00;;;;;;;23.04;38.08;102148.97;5046125;28;20021;-52